sensor_id;sensor_type;location;lat;lon;timestamp;P1;durP1;ratioP1;P2;durP2;ratioP2
23743;SDS011;12052;53.478;10.182;2024-01-30T00:00:43;7.50;;;4.15;;
23743;SDS011;12052;53.478;10.182;2024-01-30T00:03:08;6.07;;;3.83;;
23743;SDS011;12052;53.478;10.182;2024-01-30T00:05:34;6.05;;;4.00;;
23743;SDS011;12052;53.478;10.182;2024-01-30T00:07:59;6.15;;;4.03;;
23743;SDS011;12052;53.478;10.182;2024-01-30T00:10:25;9.45;;;4.30;;
23743;SDS011;12052;53.478;10.182;2024-01-30T00:12:50;7.38;;;4.43;;
23743;SDS011;12052;53.478;10.182;2024-01-30T00:15:17;7.50;;;3.90;;
23743;SDS011;12052;53.478;10.182;2024-01-30T00:17:43;8.95;;;4.40;;
23743;SDS011;12052;53.478;10.182;2024-01-30T00:20:09;9.35;;;4.68;;
23743;SDS011;12052;53.478;10.182;2024-01-30T00:22:35;5.07;;;3.90;;
23743;SDS011;12052;53.478;10.182;2024-01-30T00:25:02;7.45;;;3.83;;
23743;SDS011;12052;53.478;10.182;2024-01-30T00:27:27;12.02;;;4.40;;
23743;SDS011;12052;53.478;10.182;2024-01-30T00:29:53;9.75;;;4.90;;
23743;SDS011;12052;53.478;10.182;2024-01-30T00:32:19;9.02;;;4.50;;
23743;SDS011;12052;53.478;10.182;2024-01-30T00:34:44;8.43;;;3.83;;
23743;SDS011;12052;53.478;10.182;2024-01-30T00:37:10;9.85;;;4.90;;
23743;SDS011;12052;53.478;10.182;2024-01-30T00:39:35;8.45;;;4.47;;
23743;SDS011;12052;53.478;10.182;2024-01-30T00:42:01;8.10;;;4.63;;
23743;SDS011;12052;53.478;10.182;2024-01-30T00:44:27;8.73;;;4.68;;
23743;SDS011;12052;53.478;10.182;2024-01-30T00:46:52;6.97;;;4.38;;
23743;SDS011;12052;53.478;10.182;2024-01-30T00:49:18;11.25;;;4.32;;
23743;SDS011;12052;53.478;10.182;2024-01-30T00:51:44;10.07;;;4.57;;
23743;SDS011;12052;53.478;10.182;2024-01-30T00:54:09;10.23;;;5.03;;
23743;SDS011;12052;53.478;10.182;2024-01-30T00:56:35;9.27;;;4.75;;
23743;SDS011;12052;53.478;10.182;2024-01-30T00:59:00;8.05;;;4.88;;
23743;SDS011;12052;53.478;10.182;2024-01-30T01:01:26;10.82;;;4.78;;
23743;SDS011;12052;53.478;10.182;2024-01-30T01:03:52;6.88;;;4.22;;
23743;SDS011;12052;53.478;10.182;2024-01-30T01:06:17;11.45;;;5.07;;
23743;SDS011;12052;53.478;10.182;2024-01-30T01:08:43;7.38;;;4.10;;
23743;SDS011;12052;53.478;10.182;2024-01-30T01:11:08;6.85;;;4.22;;
23743;SDS011;12052;53.478;10.182;2024-01-30T01:13:34;9.65;;;4.10;;
23743;SDS011;12052;53.478;10.182;2024-01-30T01:16:00;10.05;;;4.43;;
23743;SDS011;12052;53.478;10.182;2024-01-30T01:18:25;9.05;;;5.63;;
23743;SDS011;12052;53.478;10.182;2024-01-30T01:20:52;7.15;;;4.60;;
23743;SDS011;12052;53.478;10.182;2024-01-30T01:23:17;8.43;;;4.80;;
23743;SDS011;12052;53.478;10.182;2024-01-30T01:25:43;13.13;;;5.28;;
23743;SDS011;12052;53.478;10.182;2024-01-30T01:28:09;14.73;;;4.50;;
23743;SDS011;12052;53.478;10.182;2024-01-30T01:30:35;9.30;;;5.13;;
23743;SDS011;12052;53.478;10.182;2024-01-30T01:33:00;7.60;;;4.68;;
23743;SDS011;12052;53.478;10.182;2024-01-30T01:35:27;8.35;;;4.85;;
23743;SDS011;12052;53.478;10.182;2024-01-30T01:37:53;10.00;;;5.10;;
23743;SDS011;12052;53.478;10.182;2024-01-30T01:40:25;8.57;;;5.13;;
23743;SDS011;12052;53.478;10.182;2024-01-30T01:42:51;8.80;;;4.90;;
23743;SDS011;12052;53.478;10.182;2024-01-30T01:45:18;8.60;;;4.82;;
23743;SDS011;12052;53.478;10.182;2024-01-30T01:47:44;7.30;;;4.53;;
23743;SDS011;12052;53.478;10.182;2024-01-30T01:50:13;10.20;;;4.72;;
23743;SDS011;12052;53.478;10.182;2024-01-30T01:52:43;9.18;;;4.57;;
23743;SDS011;12052;53.478;10.182;2024-01-30T01:55:10;8.00;;;4.15;;
23743;SDS011;12052;53.478;10.182;2024-01-30T01:57:37;7.07;;;4.65;;
23743;SDS011;12052;53.478;10.182;2024-01-30T02:00:03;8.52;;;4.63;;
23743;SDS011;12052;53.478;10.182;2024-01-30T02:02:34;8.90;;;4.68;;
23743;SDS011;12052;53.478;10.182;2024-01-30T02:05:01;8.37;;;4.47;;
23743;SDS011;12052;53.478;10.182;2024-01-30T02:07:27;6.85;;;4.38;;
23743;SDS011;12052;53.478;10.182;2024-01-30T02:09:53;6.70;;;4.53;;
23743;SDS011;12052;53.478;10.182;2024-01-30T02:12:20;10.15;;;4.63;;
23743;SDS011;12052;53.478;10.182;2024-01-30T02:14:46;9.20;;;4.90;;
23743;SDS011;12052;53.478;10.182;2024-01-30T02:17:12;8.57;;;4.85;;
23743;SDS011;12052;53.478;10.182;2024-01-30T02:19:39;10.65;;;5.50;;
23743;SDS011;12052;53.478;10.182;2024-01-30T02:22:05;10.88;;;4.70;;
23743;SDS011;12052;53.478;10.182;2024-01-30T02:24:32;8.15;;;4.45;;
23743;SDS011;12052;53.478;10.182;2024-01-30T02:26:57;7.78;;;4.75;;
23743;SDS011;12052;53.478;10.182;2024-01-30T02:29:23;8.43;;;4.15;;
23743;SDS011;12052;53.478;10.182;2024-01-30T02:31:48;10.48;;;5.18;;
23743;SDS011;12052;53.478;10.182;2024-01-30T02:34:14;12.88;;;5.45;;
23743;SDS011;12052;53.478;10.182;2024-01-30T02:36:43;16.20;;;4.85;;
23743;SDS011;12052;53.478;10.182;2024-01-30T02:39:08;13.02;;;5.90;;
23743;SDS011;12052;53.478;10.182;2024-01-30T02:41:34;9.77;;;5.10;;
23743;SDS011;12052;53.478;10.182;2024-01-30T02:44:03;10.90;;;5.38;;
23743;SDS011;12052;53.478;10.182;2024-01-30T02:46:29;8.82;;;4.63;;
23743;SDS011;12052;53.478;10.182;2024-01-30T02:48:54;8.13;;;5.05;;
23743;SDS011;12052;53.478;10.182;2024-01-30T02:51:20;10.15;;;5.25;;
23743;SDS011;12052;53.478;10.182;2024-01-30T02:53:46;9.18;;;5.47;;
23743;SDS011;12052;53.478;10.182;2024-01-30T02:56:12;10.95;;;5.43;;
23743;SDS011;12052;53.478;10.182;2024-01-30T02:58:39;8.60;;;5.55;;
23743;SDS011;12052;53.478;10.182;2024-01-30T03:01:05;7.57;;;4.65;;
23743;SDS011;12052;53.478;10.182;2024-01-30T03:03:31;8.60;;;4.75;;
23743;SDS011;12052;53.478;10.182;2024-01-30T03:05:57;9.95;;;5.05;;
23743;SDS011;12052;53.478;10.182;2024-01-30T03:08:22;11.18;;;5.28;;
23743;SDS011;12052;53.478;10.182;2024-01-30T03:10:48;9.68;;;5.18;;
23743;SDS011;12052;53.478;10.182;2024-01-30T03:13:14;8.77;;;5.07;;
23743;SDS011;12052;53.478;10.182;2024-01-30T03:15:39;8.00;;;5.13;;
23743;SDS011;12052;53.478;10.182;2024-01-30T03:18:05;8.77;;;5.00;;
23743;SDS011;12052;53.478;10.182;2024-01-30T03:20:31;10.82;;;5.50;;
23743;SDS011;12052;53.478;10.182;2024-01-30T03:22:56;11.40;;;5.40;;
23743;SDS011;12052;53.478;10.182;2024-01-30T03:25:22;10.65;;;6.07;;
23743;SDS011;12052;53.478;10.182;2024-01-30T03:27:48;11.23;;;5.60;;
23743;SDS011;12052;53.478;10.182;2024-01-30T03:30:14;9.60;;;5.80;;
23743;SDS011;12052;53.478;10.182;2024-01-30T03:32:39;10.43;;;5.80;;
23743;SDS011;12052;53.478;10.182;2024-01-30T03:35:05;11.02;;;5.57;;
23743;SDS011;12052;53.478;10.182;2024-01-30T03:37:31;16.35;;;6.32;;
23743;SDS011;12052;53.478;10.182;2024-01-30T03:39:57;9.70;;;6.13;;
23743;SDS011;12052;53.478;10.182;2024-01-30T03:42:23;13.18;;;5.68;;
23743;SDS011;12052;53.478;10.182;2024-01-30T03:44:49;10.30;;;5.25;;
23743;SDS011;12052;53.478;10.182;2024-01-30T03:47:18;10.52;;;5.97;;
23743;SDS011;12052;53.478;10.182;2024-01-30T03:49:44;11.45;;;5.20;;
23743;SDS011;12052;53.478;10.182;2024-01-30T03:52:10;14.57;;;5.85;;
23743;SDS011;12052;53.478;10.182;2024-01-30T03:54:35;7.47;;;5.28;;
23743;SDS011;12052;53.478;10.182;2024-01-30T03:57:01;11.48;;;6.53;;
23743;SDS011;12052;53.478;10.182;2024-01-30T03:59:27;10.38;;;5.65;;
23743;SDS011;12052;53.478;10.182;2024-01-30T04:01:52;11.27;;;5.22;;
23743;SDS011;12052;53.478;10.182;2024-01-30T04:04:18;11.70;;;5.47;;
23743;SDS011;12052;53.478;10.182;2024-01-30T04:06:44;9.05;;;5.53;;
23743;SDS011;12052;53.478;10.182;2024-01-30T04:09:10;8.60;;;5.95;;
23743;SDS011;12052;53.478;10.182;2024-01-30T04:11:38;11.38;;;5.40;;
23743;SDS011;12052;53.478;10.182;2024-01-30T04:14:04;9.57;;;5.68;;
23743;SDS011;12052;53.478;10.182;2024-01-30T04:16:29;10.00;;;5.70;;
23743;SDS011;12052;53.478;10.182;2024-01-30T04:18:55;12.88;;;5.78;;
23743;SDS011;12052;53.478;10.182;2024-01-30T04:21:21;8.35;;;5.50;;
23743;SDS011;12052;53.478;10.182;2024-01-30T04:23:47;14.93;;;6.22;;
23743;SDS011;12052;53.478;10.182;2024-01-30T04:26:13;10.52;;;5.75;;
23743;SDS011;12052;53.478;10.182;2024-01-30T04:28:40;12.88;;;6.63;;
23743;SDS011;12052;53.478;10.182;2024-01-30T04:31:06;11.27;;;6.75;;
23743;SDS011;12052;53.478;10.182;2024-01-30T04:33:32;10.00;;;6.05;;
23743;SDS011;12052;53.478;10.182;2024-01-30T04:35:58;10.40;;;5.95;;
23743;SDS011;12052;53.478;10.182;2024-01-30T04:38:23;8.35;;;5.50;;
23743;SDS011;12052;53.478;10.182;2024-01-30T04:40:49;11.73;;;5.50;;
23743;SDS011;12052;53.478;10.182;2024-01-30T04:43:14;9.57;;;5.75;;
23743;SDS011;12052;53.478;10.182;2024-01-30T04:45:40;14.32;;;6.88;;
23743;SDS011;12052;53.478;10.182;2024-01-30T04:48:06;11.48;;;5.97;;
23743;SDS011;12052;53.478;10.182;2024-01-30T04:50:32;11.93;;;6.22;;
23743;SDS011;12052;53.478;10.182;2024-01-30T04:52:58;12.00;;;6.40;;
23743;SDS011;12052;53.478;10.182;2024-01-30T04:55:23;13.45;;;6.60;;
23743;SDS011;12052;53.478;10.182;2024-01-30T04:57:49;8.60;;;5.25;;
23743;SDS011;12052;53.478;10.182;2024-01-30T05:00:15;11.55;;;6.38;;
23743;SDS011;12052;53.478;10.182;2024-01-30T05:02:41;10.63;;;6.07;;
23743;SDS011;12052;53.478;10.182;2024-01-30T05:05:06;9.63;;;6.30;;
23743;SDS011;12052;53.478;10.182;2024-01-30T05:07:32;13.40;;;7.70;;
23743;SDS011;12052;53.478;10.182;2024-01-30T05:09:58;11.05;;;6.80;;
23743;SDS011;12052;53.478;10.182;2024-01-30T05:12:24;12.40;;;6.57;;
23743;SDS011;12052;53.478;10.182;2024-01-30T05:14:49;12.45;;;5.80;;
23743;SDS011;12052;53.478;10.182;2024-01-30T05:17:15;10.73;;;5.97;;
23743;SDS011;12052;53.478;10.182;2024-01-30T05:19:40;13.40;;;6.60;;
23743;SDS011;12052;53.478;10.182;2024-01-30T05:22:06;8.98;;;6.50;;
23743;SDS011;12052;53.478;10.182;2024-01-30T05:24:32;12.98;;;6.28;;
23743;SDS011;12052;53.478;10.182;2024-01-30T05:26:57;14.90;;;6.85;;
23743;SDS011;12052;53.478;10.182;2024-01-30T05:29:23;12.20;;;6.47;;
23743;SDS011;12052;53.478;10.182;2024-01-30T05:31:49;13.85;;;6.40;;
23743;SDS011;12052;53.478;10.182;2024-01-30T05:34:15;14.63;;;6.80;;
23743;SDS011;12052;53.478;10.182;2024-01-30T05:36:41;14.20;;;6.32;;
23743;SDS011;12052;53.478;10.182;2024-01-30T05:39:06;12.52;;;6.60;;
23743;SDS011;12052;53.478;10.182;2024-01-30T05:41:32;13.07;;;6.20;;
23743;SDS011;12052;53.478;10.182;2024-01-30T05:43:58;12.93;;;6.55;;
23743;SDS011;12052;53.478;10.182;2024-01-30T05:46:23;13.00;;;6.15;;
23743;SDS011;12052;53.478;10.182;2024-01-30T05:48:49;14.02;;;6.97;;
23743;SDS011;12052;53.478;10.182;2024-01-30T05:51:14;13.50;;;6.88;;
23743;SDS011;12052;53.478;10.182;2024-01-30T05:53:40;12.07;;;6.57;;
23743;SDS011;12052;53.478;10.182;2024-01-30T05:56:06;10.40;;;6.70;;
23743;SDS011;12052;53.478;10.182;2024-01-30T05:58:31;11.45;;;6.45;;
23743;SDS011;12052;53.478;10.182;2024-01-30T06:00:57;11.13;;;6.03;;
23743;SDS011;12052;53.478;10.182;2024-01-30T06:03:23;13.00;;;6.88;;
23743;SDS011;12052;53.478;10.182;2024-01-30T06:05:48;12.88;;;5.95;;
23743;SDS011;12052;53.478;10.182;2024-01-30T06:08:14;12.70;;;7.32;;
23743;SDS011;12052;53.478;10.182;2024-01-30T06:10:39;13.18;;;6.40;;
23743;SDS011;12052;53.478;10.182;2024-01-30T06:13:05;12.77;;;7.25;;
23743;SDS011;12052;53.478;10.182;2024-01-30T06:15:31;12.05;;;6.85;;
23743;SDS011;12052;53.478;10.182;2024-01-30T06:17:57;16.40;;;7.40;;
23743;SDS011;12052;53.478;10.182;2024-01-30T06:20:23;11.07;;;6.40;;
23743;SDS011;12052;53.478;10.182;2024-01-30T06:22:49;14.13;;;6.95;;
23743;SDS011;12052;53.478;10.182;2024-01-30T06:25:15;13.48;;;6.85;;
23743;SDS011;12052;53.478;10.182;2024-01-30T06:27:41;15.27;;;6.80;;
23743;SDS011;12052;53.478;10.182;2024-01-30T06:30:07;14.45;;;7.72;;
23743;SDS011;12052;53.478;10.182;2024-01-30T06:32:33;18.02;;;7.70;;
23743;SDS011;12052;53.478;10.182;2024-01-30T06:35:00;13.60;;;6.97;;
23743;SDS011;12052;53.478;10.182;2024-01-30T06:37:26;13.80;;;7.28;;
23743;SDS011;12052;53.478;10.182;2024-01-30T06:39:52;11.77;;;6.32;;
23743;SDS011;12052;53.478;10.182;2024-01-30T06:42:18;16.05;;;6.72;;
23743;SDS011;12052;53.478;10.182;2024-01-30T06:44:43;17.27;;;7.68;;
23743;SDS011;12052;53.478;10.182;2024-01-30T06:47:09;14.10;;;7.45;;
23743;SDS011;12052;53.478;10.182;2024-01-30T06:49:35;13.73;;;7.78;;
23743;SDS011;12052;53.478;10.182;2024-01-30T06:52:04;12.65;;;7.60;;
23743;SDS011;12052;53.478;10.182;2024-01-30T06:54:30;14.15;;;7.63;;
23743;SDS011;12052;53.478;10.182;2024-01-30T06:56:56;19.75;;;7.57;;
23743;SDS011;12052;53.478;10.182;2024-01-30T06:59:21;14.60;;;7.80;;
23743;SDS011;12052;53.478;10.182;2024-01-30T07:01:47;14.70;;;8.20;;
23743;SDS011;12052;53.478;10.182;2024-01-30T07:04:16;15.38;;;8.70;;
23743;SDS011;12052;53.478;10.182;2024-01-30T07:06:42;18.60;;;7.80;;
23743;SDS011;12052;53.478;10.182;2024-01-30T07:09:07;19.48;;;7.88;;
23743;SDS011;12052;53.478;10.182;2024-01-30T07:11:36;12.27;;;7.78;;
23743;SDS011;12052;53.478;10.182;2024-01-30T07:14:01;17.58;;;8.25;;
23743;SDS011;12052;53.478;10.182;2024-01-30T07:16:30;19.80;;;8.82;;
23743;SDS011;12052;53.478;10.182;2024-01-30T07:18:56;15.73;;;8.27;;
23743;SDS011;12052;53.478;10.182;2024-01-30T07:21:21;15.82;;;7.90;;
23743;SDS011;12052;53.478;10.182;2024-01-30T07:23:52;17.67;;;8.23;;
23743;SDS011;12052;53.478;10.182;2024-01-30T07:26:21;12.73;;;7.45;;
23743;SDS011;12052;53.478;10.182;2024-01-30T07:28:47;17.73;;;8.48;;
23743;SDS011;12052;53.478;10.182;2024-01-30T07:31:12;17.15;;;8.05;;
23743;SDS011;12052;53.478;10.182;2024-01-30T07:33:38;17.02;;;7.60;;
23743;SDS011;12052;53.478;10.182;2024-01-30T07:36:03;16.15;;;8.55;;
23743;SDS011;12052;53.478;10.182;2024-01-30T07:38:31;18.15;;;8.73;;
23743;SDS011;12052;53.478;10.182;2024-01-30T07:40:57;18.45;;;8.82;;
23743;SDS011;12052;53.478;10.182;2024-01-30T07:43:23;15.10;;;7.40;;
23743;SDS011;12052;53.478;10.182;2024-01-30T07:45:48;16.42;;;8.90;;
23743;SDS011;12052;53.478;10.182;2024-01-30T07:48:14;18.30;;;9.27;;
23743;SDS011;12052;53.478;10.182;2024-01-30T07:50:39;14.50;;;8.07;;
23743;SDS011;12052;53.478;10.182;2024-01-30T07:53:05;16.67;;;8.27;;
23743;SDS011;12052;53.478;10.182;2024-01-30T07:55:30;17.63;;;8.63;;
23743;SDS011;12052;53.478;10.182;2024-01-30T08:01:29;17.42;;;8.52;;
23743;SDS011;12052;53.478;10.182;2024-01-30T08:03:54;18.25;;;9.00;;
23743;SDS011;12052;53.478;10.182;2024-01-30T08:06:20;14.88;;;8.35;;
23743;SDS011;12052;53.478;10.182;2024-01-30T08:08:45;18.55;;;9.20;;
23743;SDS011;12052;53.478;10.182;2024-01-30T08:11:11;15.27;;;8.77;;
23743;SDS011;12052;53.478;10.182;2024-01-30T08:13:37;17.27;;;8.75;;
23743;SDS011;12052;53.478;10.182;2024-01-30T08:16:03;17.20;;;9.23;;
23743;SDS011;12052;53.478;10.182;2024-01-30T08:18:29;16.13;;;8.60;;
23743;SDS011;12052;53.478;10.182;2024-01-30T08:20:54;14.63;;;8.43;;
23743;SDS011;12052;53.478;10.182;2024-01-30T08:23:20;14.35;;;8.18;;
23743;SDS011;12052;53.478;10.182;2024-01-30T08:25:45;19.90;;;8.52;;
23743;SDS011;12052;53.478;10.182;2024-01-30T08:28:11;22.85;;;9.27;;
23743;SDS011;12052;53.478;10.182;2024-01-30T08:30:37;20.80;;;8.88;;
23743;SDS011;12052;53.478;10.182;2024-01-30T08:33:04;21.20;;;10.50;;
23743;SDS011;12052;53.478;10.182;2024-01-30T08:35:29;25.38;;;10.82;;
23743;SDS011;12052;53.478;10.182;2024-01-30T08:37:58;24.27;;;10.05;;
23743;SDS011;12052;53.478;10.182;2024-01-30T08:40:24;18.75;;;10.02;;
23743;SDS011;12052;53.478;10.182;2024-01-30T08:42:49;17.58;;;10.32;;
23743;SDS011;12052;53.478;10.182;2024-01-30T08:45:15;16.45;;;8.68;;
23743;SDS011;12052;53.478;10.182;2024-01-30T08:47:41;17.23;;;8.65;;
23743;SDS011;12052;53.478;10.182;2024-01-30T08:50:07;17.50;;;9.35;;
23743;SDS011;12052;53.478;10.182;2024-01-30T08:52:32;15.23;;;8.35;;
23743;SDS011;12052;53.478;10.182;2024-01-30T08:54:59;16.77;;;8.55;;
23743;SDS011;12052;53.478;10.182;2024-01-30T08:57:25;15.60;;;8.38;;
23743;SDS011;12052;53.478;10.182;2024-01-30T08:59:53;19.02;;;8.52;;
23743;SDS011;12052;53.478;10.182;2024-01-30T09:02:19;15.75;;;8.13;;
23743;SDS011;12052;53.478;10.182;2024-01-30T09:04:44;15.82;;;8.68;;
23743;SDS011;12052;53.478;10.182;2024-01-30T09:07:10;18.17;;;8.05;;
23743;SDS011;12052;53.478;10.182;2024-01-30T09:09:37;15.57;;;8.38;;
23743;SDS011;12052;53.478;10.182;2024-01-30T09:12:05;21.35;;;8.65;;
23743;SDS011;12052;53.478;10.182;2024-01-30T09:14:34;14.90;;;7.80;;
23743;SDS011;12052;53.478;10.182;2024-01-30T09:17:00;17.42;;;8.65;;
23743;SDS011;12052;53.478;10.182;2024-01-30T09:19:25;21.70;;;9.45;;
23743;SDS011;12052;53.478;10.182;2024-01-30T09:21:51;16.27;;;8.75;;
23743;SDS011;12052;53.478;10.182;2024-01-30T09:24:17;15.13;;;9.00;;
23743;SDS011;12052;53.478;10.182;2024-01-30T09:26:42;19.52;;;8.48;;
23743;SDS011;12052;53.478;10.182;2024-01-30T09:29:08;20.48;;;8.80;;
23743;SDS011;12052;53.478;10.182;2024-01-30T09:31:33;16.38;;;8.50;;
23743;SDS011;12052;53.478;10.182;2024-01-30T09:33:59;14.07;;;7.80;;
23743;SDS011;12052;53.478;10.182;2024-01-30T09:36:24;14.85;;;8.68;;
23743;SDS011;12052;53.478;10.182;2024-01-30T09:38:50;18.02;;;9.35;;
23743;SDS011;12052;53.478;10.182;2024-01-30T09:41:16;17.58;;;8.43;;
23743;SDS011;12052;53.478;10.182;2024-01-30T09:43:46;16.95;;;8.25;;
23743;SDS011;12052;53.478;10.182;2024-01-30T09:46:16;14.88;;;8.55;;
23743;SDS011;12052;53.478;10.182;2024-01-30T09:48:43;18.85;;;9.60;;
23743;SDS011;12052;53.478;10.182;2024-01-30T09:51:11;18.52;;;8.18;;
23743;SDS011;12052;53.478;10.182;2024-01-30T09:53:39;15.30;;;8.30;;
23743;SDS011;12052;53.478;10.182;2024-01-30T09:56:05;16.55;;;8.07;;
23743;SDS011;12052;53.478;10.182;2024-01-30T09:58:31;14.63;;;8.57;;
23743;SDS011;12052;53.478;10.182;2024-01-30T10:00:57;13.60;;;8.13;;
23743;SDS011;12052;53.478;10.182;2024-01-30T10:03:22;20.27;;;8.93;;
23743;SDS011;12052;53.478;10.182;2024-01-30T10:05:51;14.50;;;8.40;;
23743;SDS011;12052;53.478;10.182;2024-01-30T10:08:20;15.35;;;7.38;;
23743;SDS011;12052;53.478;10.182;2024-01-30T10:10:49;13.57;;;7.82;;
23743;SDS011;12052;53.478;10.182;2024-01-30T10:13:15;22.40;;;9.27;;
23743;SDS011;12052;53.478;10.182;2024-01-30T10:15:41;17.95;;;9.07;;
23743;SDS011;12052;53.478;10.182;2024-01-30T10:18:08;13.93;;;7.85;;
23743;SDS011;12052;53.478;10.182;2024-01-30T10:20:35;16.98;;;9.00;;
23743;SDS011;12052;53.478;10.182;2024-01-30T10:23:00;15.00;;;8.02;;
23743;SDS011;12052;53.478;10.182;2024-01-30T10:25:27;15.25;;;7.90;;
23743;SDS011;12052;53.478;10.182;2024-01-30T10:27:55;18.05;;;9.10;;
23743;SDS011;12052;53.478;10.182;2024-01-30T10:30:21;18.50;;;8.85;;
23743;SDS011;12052;53.478;10.182;2024-01-30T10:32:47;17.42;;;9.35;;
23743;SDS011;12052;53.478;10.182;2024-01-30T10:35:13;13.43;;;8.40;;
23743;SDS011;12052;53.478;10.182;2024-01-30T10:37:39;17.73;;;9.02;;
23743;SDS011;12052;53.478;10.182;2024-01-30T10:40:04;14.38;;;7.93;;
23743;SDS011;12052;53.478;10.182;2024-01-30T10:42:31;18.75;;;8.70;;
23743;SDS011;12052;53.478;10.182;2024-01-30T10:47:34;14.65;;;7.85;;
23743;SDS011;12052;53.478;10.182;2024-01-30T10:50:04;16.42;;;9.18;;
23743;SDS011;12052;53.478;10.182;2024-01-30T10:52:30;17.88;;;8.65;;
23743;SDS011;12052;53.478;10.182;2024-01-30T10:54:57;16.73;;;8.90;;
23743;SDS011;12052;53.478;10.182;2024-01-30T10:57:24;21.60;;;8.50;;
23743;SDS011;12052;53.478;10.182;2024-01-30T10:59:51;16.80;;;8.82;;
23743;SDS011;12052;53.478;10.182;2024-01-30T11:02:20;15.30;;;8.25;;
23743;SDS011;12052;53.478;10.182;2024-01-30T11:04:46;15.55;;;7.85;;
23743;SDS011;12052;53.478;10.182;2024-01-30T11:09:49;17.77;;;9.07;;
23743;SDS011;12052;53.478;10.182;2024-01-30T11:12:25;13.40;;;7.75;;
23743;SDS011;12052;53.478;10.182;2024-01-30T11:15:11;16.00;;;8.73;;
23743;SDS011;12052;53.478;10.182;2024-01-30T11:20:31;15.10;;;8.18;;
23743;SDS011;12052;53.478;10.182;2024-01-30T11:22:58;17.33;;;8.40;;
23743;SDS011;12052;53.478;10.182;2024-01-30T11:25:24;19.05;;;7.95;;
23743;SDS011;12052;53.478;10.182;2024-01-30T11:27:51;20.17;;;8.38;;
23743;SDS011;12052;53.478;10.182;2024-01-30T11:30:25;17.27;;;8.68;;
23743;SDS011;12052;53.478;10.182;2024-01-30T11:33:03;15.05;;;7.47;;
23743;SDS011;12052;53.478;10.182;2024-01-30T11:35:40;14.18;;;7.35;;
23743;SDS011;12052;53.478;10.182;2024-01-30T11:38:08;14.80;;;7.90;;
23743;SDS011;12052;53.478;10.182;2024-01-30T11:40:35;13.82;;;8.60;;
23743;SDS011;12052;53.478;10.182;2024-01-30T11:43:03;21.83;;;9.15;;
23743;SDS011;12052;53.478;10.182;2024-01-30T11:45:29;15.73;;;8.65;;
23743;SDS011;12052;53.478;10.182;2024-01-30T11:47:56;18.08;;;8.82;;
23743;SDS011;12052;53.478;10.182;2024-01-30T11:50:22;19.95;;;8.13;;
23743;SDS011;12052;53.478;10.182;2024-01-30T11:52:49;15.20;;;8.43;;
23743;SDS011;12052;53.478;10.182;2024-01-30T11:55:15;20.48;;;8.18;;
23743;SDS011;12052;53.478;10.182;2024-01-30T11:57:41;13.55;;;7.43;;
23743;SDS011;12052;53.478;10.182;2024-01-30T12:00:18;15.25;;;7.82;;
23743;SDS011;12052;53.478;10.182;2024-01-30T12:02:49;16.25;;;8.45;;
23743;SDS011;12052;53.478;10.182;2024-01-30T12:05:16;15.50;;;8.50;;
23743;SDS011;12052;53.478;10.182;2024-01-30T12:07:45;16.20;;;7.85;;
23743;SDS011;12052;53.478;10.182;2024-01-30T12:10:12;16.45;;;7.95;;
23743;SDS011;12052;53.478;10.182;2024-01-30T12:12:39;15.52;;;8.20;;
23743;SDS011;12052;53.478;10.182;2024-01-30T12:15:06;18.67;;;8.82;;
23743;SDS011;12052;53.478;10.182;2024-01-30T12:17:33;14.05;;;7.95;;
23743;SDS011;12052;53.478;10.182;2024-01-30T12:20:14;15.52;;;7.78;;
23743;SDS011;12052;53.478;10.182;2024-01-30T12:22:43;14.85;;;7.13;;
23743;SDS011;12052;53.478;10.182;2024-01-30T12:25:11;11.60;;;6.90;;
23743;SDS011;12052;53.478;10.182;2024-01-30T12:27:38;14.18;;;6.63;;
23743;SDS011;12052;53.478;10.182;2024-01-30T12:30:08;14.30;;;7.35;;
23743;SDS011;12052;53.478;10.182;2024-01-30T12:32:42;13.25;;;7.63;;
23743;SDS011;12052;53.478;10.182;2024-01-30T12:35:15;11.43;;;6.82;;
23743;SDS011;12052;53.478;10.182;2024-01-30T12:37:43;10.10;;;6.88;;
23743;SDS011;12052;53.478;10.182;2024-01-30T12:40:10;11.05;;;6.38;;
23743;SDS011;12052;53.478;10.182;2024-01-30T12:42:39;14.18;;;7.32;;
23743;SDS011;12052;53.478;10.182;2024-01-30T12:45:08;15.32;;;7.75;;
23743;SDS011;12052;53.478;10.182;2024-01-30T12:47:34;12.25;;;6.68;;
23743;SDS011;12052;53.478;10.182;2024-01-30T12:49:59;18.42;;;8.68;;
23743;SDS011;12052;53.478;10.182;2024-01-30T12:52:25;16.70;;;8.02;;
23743;SDS011;12052;53.478;10.182;2024-01-30T12:54:51;14.80;;;7.70;;
23743;SDS011;12052;53.478;10.182;2024-01-30T12:57:17;13.10;;;6.80;;
23743;SDS011;12052;53.478;10.182;2024-01-30T12:59:43;12.88;;;7.47;;
23743;SDS011;12052;53.478;10.182;2024-01-30T13:02:10;13.13;;;6.55;;
23743;SDS011;12052;53.478;10.182;2024-01-30T13:04:37;11.38;;;6.78;;
23743;SDS011;12052;53.478;10.182;2024-01-30T13:07:02;11.40;;;6.35;;
23743;SDS011;12052;53.478;10.182;2024-01-30T13:09:29;12.07;;;6.00;;
23743;SDS011;12052;53.478;10.182;2024-01-30T13:11:55;10.93;;;6.00;;
23743;SDS011;12052;53.478;10.182;2024-01-30T13:14:21;13.60;;;6.57;;
23743;SDS011;12052;53.478;10.182;2024-01-30T13:16:46;11.57;;;5.80;;
23743;SDS011;12052;53.478;10.182;2024-01-30T13:19:12;14.75;;;6.22;;
23743;SDS011;12052;53.478;10.182;2024-01-30T13:21:38;12.52;;;6.10;;
23743;SDS011;12052;53.478;10.182;2024-01-30T13:24:03;12.07;;;6.25;;
23743;SDS011;12052;53.478;10.182;2024-01-30T13:26:31;11.95;;;5.93;;
23743;SDS011;12052;53.478;10.182;2024-01-30T13:28:57;10.90;;;5.90;;
23743;SDS011;12052;53.478;10.182;2024-01-30T13:31:22;19.02;;;6.10;;
23743;SDS011;12052;53.478;10.182;2024-01-30T13:33:48;9.85;;;6.20;;
23743;SDS011;12052;53.478;10.182;2024-01-30T13:36:14;11.57;;;5.90;;
23743;SDS011;12052;53.478;10.182;2024-01-30T13:38:40;12.75;;;5.47;;
23743;SDS011;12052;53.478;10.182;2024-01-30T13:41:06;17.15;;;5.75;;
23743;SDS011;12052;53.478;10.182;2024-01-30T13:43:31;13.70;;;6.35;;
23743;SDS011;12052;53.478;10.182;2024-01-30T13:45:57;8.85;;;5.78;;
23743;SDS011;12052;53.478;10.182;2024-01-30T13:48:23;12.30;;;6.35;;
23743;SDS011;12052;53.478;10.182;2024-01-30T13:50:49;13.32;;;5.97;;
23743;SDS011;12052;53.478;10.182;2024-01-30T13:53:15;10.00;;;5.57;;
23743;SDS011;12052;53.478;10.182;2024-01-30T13:55:40;12.18;;;5.70;;
23743;SDS011;12052;53.478;10.182;2024-01-30T13:58:06;9.88;;;6.10;;
23743;SDS011;12052;53.478;10.182;2024-01-30T14:00:32;12.82;;;6.20;;
23743;SDS011;12052;53.478;10.182;2024-01-30T14:02:58;11.57;;;5.80;;
23743;SDS011;12052;53.478;10.182;2024-01-30T14:05:24;10.50;;;6.00;;
23743;SDS011;12052;53.478;10.182;2024-01-30T14:07:51;13.05;;;5.85;;
23743;SDS011;12052;53.478;10.182;2024-01-30T14:10:17;12.23;;;6.50;;
23743;SDS011;12052;53.478;10.182;2024-01-30T14:12:43;9.13;;;5.93;;
23743;SDS011;12052;53.478;10.182;2024-01-30T14:15:09;13.23;;;6.10;;
23743;SDS011;12052;53.478;10.182;2024-01-30T14:17:35;15.57;;;6.22;;
23743;SDS011;12052;53.478;10.182;2024-01-30T14:20:04;12.05;;;5.63;;
23743;SDS011;12052;53.478;10.182;2024-01-30T14:22:31;8.65;;;5.68;;
23743;SDS011;12052;53.478;10.182;2024-01-30T14:24:56;12.05;;;5.70;;
23743;SDS011;12052;53.478;10.182;2024-01-30T14:27:22;13.40;;;6.07;;
23743;SDS011;12052;53.478;10.182;2024-01-30T14:29:48;13.85;;;6.80;;